sensor_id;sensor_type;location;lat;lon;timestamp;P1;durP1;ratioP1;P2;durP2;ratioP2
23179;SDS011;11758;45.756;11.432;2023-03-01T00:01:00;18.73;;;9.63;;
23179;SDS011;11758;45.756;11.432;2023-03-01T00:03:26;16.92;;;9.38;;
23179;SDS011;11758;45.756;11.432;2023-03-01T00:05:52;17.77;;;10.03;;
23179;SDS011;11758;45.756;11.432;2023-03-01T00:08:18;16.57;;;8.97;;
23179;SDS011;11758;45.756;11.432;2023-03-01T00:10:44;14.20;;;8.67;;
23179;SDS011;11758;45.756;11.432;2023-03-01T00:13:10;17.67;;;8.20;;
23179;SDS011;11758;45.756;11.432;2023-03-01T00:15:40;22.40;;;9.83;;
23179;SDS011;11758;45.756;11.432;2023-03-01T00:18:09;19.10;;;10.23;;
23179;SDS011;11758;45.756;11.432;2023-03-01T00:20:35;18.03;;;9.53;;
23179;SDS011;11758;45.756;11.432;2023-03-01T00:23:01;18.03;;;9.97;;
23179;SDS011;11758;45.756;11.432;2023-03-01T00:25:27;23.10;;;10.20;;
23179;SDS011;11758;45.756;11.432;2023-03-01T00:27:53;16.40;;;9.47;;
23179;SDS011;11758;45.756;11.432;2023-03-01T00:30:19;17.77;;;9.20;;
23179;SDS011;11758;45.756;11.432;2023-03-01T00:32:46;22.90;;;9.07;;
23179;SDS011;11758;45.756;11.432;2023-03-01T00:35:12;18.60;;;9.40;;
23179;SDS011;11758;45.756;11.432;2023-03-01T00:37:38;18.07;;;9.00;;
23179;SDS011;11758;45.756;11.432;2023-03-01T00:40:05;16.30;;;8.60;;
23179;SDS011;11758;45.756;11.432;2023-03-01T00:42:32;17.23;;;8.50;;
23179;SDS011;11758;45.756;11.432;2023-03-01T00:44:58;16.17;;;8.43;;
23179;SDS011;11758;45.756;11.432;2023-03-01T00:47:24;15.73;;;8.73;;
23179;SDS011;11758;45.756;11.432;2023-03-01T00:49:50;18.07;;;8.87;;
23179;SDS011;11758;45.756;11.432;2023-03-01T00:52:16;22.83;;;9.80;;
23179;SDS011;11758;45.756;11.432;2023-03-01T00:54:42;26.93;;;9.60;;
23179;SDS011;11758;45.756;11.432;2023-03-01T00:57:09;15.90;;;8.93;;
23179;SDS011;11758;45.756;11.432;2023-03-01T00:59:38;17.97;;;9.03;;
23179;SDS011;11758;45.756;11.432;2023-03-01T01:02:05;18.57;;;9.37;;
23179;SDS011;11758;45.756;11.432;2023-03-01T01:04:31;16.97;;;9.47;;
23179;SDS011;11758;45.756;11.432;2023-03-01T01:06:57;20.90;;;9.13;;
23179;SDS011;11758;45.756;11.432;2023-03-01T01:09:23;20.23;;;9.50;;
23179;SDS011;11758;45.756;11.432;2023-03-01T01:11:50;16.23;;;9.40;;
23179;SDS011;11758;45.756;11.432;2023-03-01T01:14:17;18.93;;;8.83;;
23179;SDS011;11758;45.756;11.432;2023-03-01T01:16:44;21.83;;;10.90;;
23179;SDS011;11758;45.756;11.432;2023-03-01T01:19:10;24.23;;;11.80;;
23179;SDS011;11758;45.756;11.432;2023-03-01T01:21:36;24.97;;;11.40;;
23179;SDS011;11758;45.756;11.432;2023-03-01T01:24:03;30.83;;;11.13;;
23179;SDS011;11758;45.756;11.432;2023-03-01T01:26:30;25.67;;;10.77;;
23179;SDS011;11758;45.756;11.432;2023-03-01T01:28:57;17.30;;;8.50;;
23179;SDS011;11758;45.756;11.432;2023-03-01T01:31:24;18.90;;;9.73;;
23179;SDS011;11758;45.756;11.432;2023-03-01T01:33:50;19.17;;;9.53;;
23179;SDS011;11758;45.756;11.432;2023-03-01T01:36:17;21.63;;;10.17;;
23179;SDS011;11758;45.756;11.432;2023-03-01T01:38:43;20.70;;;9.47;;
23179;SDS011;11758;45.756;11.432;2023-03-01T01:41:10;18.63;;;9.13;;
23179;SDS011;11758;45.756;11.432;2023-03-01T01:43:38;16.77;;;9.23;;
23179;SDS011;11758;45.756;11.432;2023-03-01T01:46:28;15.47;;;8.37;;
23179;SDS011;11758;45.756;11.432;2023-03-01T01:48:53;16.90;;;9.20;;
23179;SDS011;11758;45.756;11.432;2023-03-01T01:51:21;18.20;;;9.17;;
23179;SDS011;11758;45.756;11.432;2023-03-01T01:53:53;16.33;;;8.73;;
23179;SDS011;11758;45.756;11.432;2023-03-01T01:56:26;17.77;;;8.90;;
23179;SDS011;11758;45.756;11.432;2023-03-01T01:58:52;17.00;;;8.80;;
23179;SDS011;11758;45.756;11.432;2023-03-01T02:01:19;16.67;;;8.97;;
23179;SDS011;11758;45.756;11.432;2023-03-01T02:03:45;16.00;;;8.47;;
23179;SDS011;11758;45.756;11.432;2023-03-01T02:06:18;15.20;;;8.83;;
23179;SDS011;11758;45.756;11.432;2023-03-01T02:08:45;16.37;;;9.03;;
23179;SDS011;11758;45.756;11.432;2023-03-01T02:11:13;20.90;;;9.30;;
23179;SDS011;11758;45.756;11.432;2023-03-01T02:13:42;16.73;;;8.67;;
23179;SDS011;11758;45.756;11.432;2023-03-01T02:16:09;18.57;;;8.93;;
23179;SDS011;11758;45.756;11.432;2023-03-01T02:18:37;14.63;;;8.43;;
23179;SDS011;11758;45.756;11.432;2023-03-01T02:23:36;14.90;;;8.50;;
23179;SDS011;11758;45.756;11.432;2023-03-01T02:28:35;18.40;;;8.93;;
23179;SDS011;11758;45.756;11.432;2023-03-01T02:31:03;16.40;;;8.47;;
23179;SDS011;11758;45.756;11.432;2023-03-01T02:33:49;16.87;;;8.00;;
23179;SDS011;11758;45.756;11.432;2023-03-01T02:36:17;17.93;;;8.60;;
23179;SDS011;11758;45.756;11.432;2023-03-01T02:38:43;18.17;;;9.07;;
23179;SDS011;11758;45.756;11.432;2023-03-01T02:41:10;13.93;;;7.80;;
23179;SDS011;11758;45.756;11.432;2023-03-01T02:43:38;18.63;;;8.77;;
23179;SDS011;11758;45.756;11.432;2023-03-01T02:46:07;19.37;;;9.13;;
23179;SDS011;11758;45.756;11.432;2023-03-01T02:48:44;14.13;;;8.20;;
23179;SDS011;11758;45.756;11.432;2023-03-01T02:51:14;17.03;;;8.93;;
23179;SDS011;11758;45.756;11.432;2023-03-01T02:56:06;15.07;;;8.20;;
23179;SDS011;11758;45.756;11.432;2023-03-01T02:58:38;16.87;;;8.73;;
23179;SDS011;11758;45.756;11.432;2023-03-01T03:01:10;16.53;;;8.70;;
23179;SDS011;11758;45.756;11.432;2023-03-01T03:03:38;17.60;;;9.00;;
23179;SDS011;11758;45.756;11.432;2023-03-01T03:06:05;17.63;;;8.40;;
23179;SDS011;11758;45.756;11.432;2023-03-01T03:08:31;16.33;;;8.40;;
23179;SDS011;11758;45.756;11.432;2023-03-01T03:10:57;18.10;;;8.13;;
23179;SDS011;11758;45.756;11.432;2023-03-01T03:13:24;16.23;;;7.93;;
23179;SDS011;11758;45.756;11.432;2023-03-01T03:15:56;17.20;;;8.80;;
23179;SDS011;11758;45.756;11.432;2023-03-01T03:18:23;18.33;;;8.47;;
23179;SDS011;11758;45.756;11.432;2023-03-01T03:20:52;16.67;;;9.30;;
23179;SDS011;11758;45.756;11.432;2023-03-01T03:23:20;17.43;;;9.30;;
23179;SDS011;11758;45.756;11.432;2023-03-01T03:25:49;21.20;;;9.17;;
23179;SDS011;11758;45.756;11.432;2023-03-01T03:28:16;22.37;;;9.23;;
23179;SDS011;11758;45.756;11.432;2023-03-01T03:30:42;18.83;;;9.47;;
23179;SDS011;11758;45.756;11.432;2023-03-01T03:33:09;17.07;;;9.23;;
23179;SDS011;11758;45.756;11.432;2023-03-01T03:35:43;14.37;;;8.50;;
23179;SDS011;11758;45.756;11.432;2023-03-01T03:38:10;14.60;;;8.60;;
23179;SDS011;11758;45.756;11.432;2023-03-01T03:41:26;17.87;;;8.93;;
23179;SDS011;11758;45.756;11.432;2023-03-01T03:43:34;18.37;;;8.37;;
23179;SDS011;11758;45.756;11.432;2023-03-01T03:46:01;16.67;;;8.80;;
23179;SDS011;11758;45.756;11.432;2023-03-01T03:48:31;16.13;;;8.60;;
23179;SDS011;11758;45.756;11.432;2023-03-01T03:50:58;20.73;;;9.37;;
23179;SDS011;11758;45.756;11.432;2023-03-01T03:53:25;19.87;;;9.67;;
23179;SDS011;11758;45.756;11.432;2023-03-01T03:55:52;24.67;;;10.40;;
23179;SDS011;11758;45.756;11.432;2023-03-01T03:58:19;19.33;;;9.27;;
23179;SDS011;11758;45.756;11.432;2023-03-01T04:00:45;18.63;;;9.43;;
23179;SDS011;11758;45.756;11.432;2023-03-01T04:03:13;19.80;;;9.73;;
23179;SDS011;11758;45.756;11.432;2023-03-01T04:05:40;18.63;;;9.33;;
23179;SDS011;11758;45.756;11.432;2023-03-01T04:08:06;30.17;;;13.10;;
23179;SDS011;11758;45.756;11.432;2023-03-01T04:10:37;23.10;;;12.17;;
23179;SDS011;11758;45.756;11.432;2023-03-01T04:13:05;26.80;;;11.50;;
23179;SDS011;11758;45.756;11.432;2023-03-01T04:15:33;22.40;;;9.60;;
23179;SDS011;11758;45.756;11.432;2023-03-01T04:17:59;22.10;;;10.40;;
23179;SDS011;11758;45.756;11.432;2023-03-01T04:20:27;19.23;;;9.63;;
23179;SDS011;11758;45.756;11.432;2023-03-01T04:22:58;23.87;;;11.33;;
23179;SDS011;11758;45.756;11.432;2023-03-01T04:25:24;24.10;;;11.97;;
23179;SDS011;11758;45.756;11.432;2023-03-01T04:27:50;23.93;;;10.27;;
23179;SDS011;11758;45.756;11.432;2023-03-01T04:30:16;19.60;;;9.07;;
23179;SDS011;11758;45.756;11.432;2023-03-01T04:32:42;21.57;;;9.53;;
23179;SDS011;11758;45.756;11.432;2023-03-01T04:35:08;19.67;;;9.53;;
23179;SDS011;11758;45.756;11.432;2023-03-01T04:37:34;23.67;;;12.90;;
23179;SDS011;11758;45.756;11.432;2023-03-01T04:40:02;65.93;;;28.70;;
23179;SDS011;11758;45.756;11.432;2023-03-01T04:42:41;23.77;;;12.10;;
23179;SDS011;11758;45.756;11.432;2023-03-01T04:45:07;63.67;;;28.00;;
23179;SDS011;11758;45.756;11.432;2023-03-01T04:47:38;35.77;;;18.67;;
23179;SDS011;11758;45.756;11.432;2023-03-01T04:50:04;29.13;;;13.03;;
23179;SDS011;11758;45.756;11.432;2023-03-01T04:52:31;16.37;;;8.03;;
23179;SDS011;11758;45.756;11.432;2023-03-01T04:54:57;19.23;;;8.47;;
23179;SDS011;11758;45.756;11.432;2023-03-01T04:57:23;20.77;;;10.00;;
23179;SDS011;11758;45.756;11.432;2023-03-01T04:59:49;20.00;;;9.50;;
23179;SDS011;11758;45.756;11.432;2023-03-01T05:02:15;16.43;;;8.77;;
23179;SDS011;11758;45.756;11.432;2023-03-01T05:04:41;16.87;;;7.23;;
23179;SDS011;11758;45.756;11.432;2023-03-01T05:07:07;20.50;;;9.93;;
23179;SDS011;11758;45.756;11.432;2023-03-01T05:09:34;11.70;;;7.57;;
23179;SDS011;11758;45.756;11.432;2023-03-01T05:12:00;15.37;;;8.33;;
23179;SDS011;11758;45.756;11.432;2023-03-01T05:14:26;12.17;;;7.27;;
23179;SDS011;11758;45.756;11.432;2023-03-01T05:16:53;17.27;;;9.00;;
23179;SDS011;11758;45.756;11.432;2023-03-01T05:19:19;39.23;;;16.83;;
23179;SDS011;11758;45.756;11.432;2023-03-01T05:21:47;79.93;;;29.07;;
23179;SDS011;11758;45.756;11.432;2023-03-01T05:24:29;97.77;;;34.83;;
23179;SDS011;11758;45.756;11.432;2023-03-01T05:26:56;73.40;;;26.87;;
23179;SDS011;11758;45.756;11.432;2023-03-01T05:29:22;86.40;;;33.67;;
23179;SDS011;11758;45.756;11.432;2023-03-01T05:31:52;73.83;;;28.17;;
23179;SDS011;11758;45.756;11.432;2023-03-01T05:34:24;62.63;;;23.87;;
23179;SDS011;11758;45.756;11.432;2023-03-01T05:36:50;30.77;;;14.60;;
23179;SDS011;11758;45.756;11.432;2023-03-01T05:39:18;18.53;;;10.20;;
23179;SDS011;11758;45.756;11.432;2023-03-01T05:41:46;24.53;;;12.30;;
23179;SDS011;11758;45.756;11.432;2023-03-01T05:44:12;20.73;;;10.07;;
23179;SDS011;11758;45.756;11.432;2023-03-01T05:46:39;26.77;;;11.83;;
23179;SDS011;11758;45.756;11.432;2023-03-01T05:49:05;27.90;;;11.43;;
23179;SDS011;11758;45.756;11.432;2023-03-01T05:51:31;33.03;;;12.47;;
23179;SDS011;11758;45.756;11.432;2023-03-01T05:53:58;25.60;;;11.47;;
23179;SDS011;11758;45.756;11.432;2023-03-01T05:56:24;23.27;;;10.07;;
23179;SDS011;11758;45.756;11.432;2023-03-01T05:58:50;18.87;;;9.10;;
23179;SDS011;11758;45.756;11.432;2023-03-01T06:01:16;22.53;;;10.53;;
23179;SDS011;11758;45.756;11.432;2023-03-01T06:03:43;19.67;;;9.27;;
23179;SDS011;11758;45.756;11.432;2023-03-01T06:06:09;17.83;;;9.40;;
23179;SDS011;11758;45.756;11.432;2023-03-01T06:08:35;19.50;;;8.40;;
23179;SDS011;11758;45.756;11.432;2023-03-01T06:11:01;17.03;;;8.07;;
23179;SDS011;11758;45.756;11.432;2023-03-01T06:13:27;13.27;;;7.07;;
23179;SDS011;11758;45.756;11.432;2023-03-01T06:15:53;11.77;;;7.33;;
23179;SDS011;11758;45.756;11.432;2023-03-01T06:18:19;12.97;;;7.53;;
23179;SDS011;11758;45.756;11.432;2023-03-01T06:20:45;14.23;;;7.90;;
23179;SDS011;11758;45.756;11.432;2023-03-01T06:23:17;25.93;;;11.43;;
23179;SDS011;11758;45.756;11.432;2023-03-01T06:25:44;31.03;;;15.60;;
23179;SDS011;11758;45.756;11.432;2023-03-01T06:28:10;20.37;;;10.17;;
23179;SDS011;11758;45.756;11.432;2023-03-01T06:30:36;17.90;;;8.80;;
23179;SDS011;11758;45.756;11.432;2023-03-01T06:33:02;12.27;;;7.30;;
23179;SDS011;11758;45.756;11.432;2023-03-01T06:35:28;22.67;;;9.07;;
23179;SDS011;11758;45.756;11.432;2023-03-01T06:37:56;28.93;;;13.03;;
23179;SDS011;11758;45.756;11.432;2023-03-01T06:40:22;22.83;;;11.17;;
23179;SDS011;11758;45.756;11.432;2023-03-01T06:42:49;26.00;;;12.53;;
23179;SDS011;11758;45.756;11.432;2023-03-01T06:45:16;25.10;;;11.97;;
23179;SDS011;11758;45.756;11.432;2023-03-01T06:47:42;20.83;;;11.27;;
23179;SDS011;11758;45.756;11.432;2023-03-01T06:50:09;30.97;;;14.87;;
23179;SDS011;11758;45.756;11.432;2023-03-01T06:52:35;24.47;;;13.63;;
23179;SDS011;11758;45.756;11.432;2023-03-01T06:55:01;25.97;;;13.17;;
23179;SDS011;11758;45.756;11.432;2023-03-01T06:57:28;29.00;;;11.80;;
23179;SDS011;11758;45.756;11.432;2023-03-01T06:59:54;19.97;;;10.03;;
23179;SDS011;11758;45.756;11.432;2023-03-01T07:02:20;16.93;;;8.90;;
23179;SDS011;11758;45.756;11.432;2023-03-01T07:04:48;22.70;;;11.53;;
23179;SDS011;11758;45.756;11.432;2023-03-01T07:07:14;22.97;;;11.70;;
23179;SDS011;11758;45.756;11.432;2023-03-01T07:09:40;26.10;;;14.10;;
23179;SDS011;11758;45.756;11.432;2023-03-01T07:12:06;26.10;;;11.97;;
23179;SDS011;11758;45.756;11.432;2023-03-01T07:14:33;28.10;;;12.33;;
23179;SDS011;11758;45.756;11.432;2023-03-01T07:16:59;23.93;;;11.63;;
23179;SDS011;11758;45.756;11.432;2023-03-01T07:19:25;20.13;;;10.67;;
23179;SDS011;11758;45.756;11.432;2023-03-01T07:21:51;19.13;;;10.37;;
23179;SDS011;11758;45.756;11.432;2023-03-01T07:24:17;19.30;;;9.23;;
23179;SDS011;11758;45.756;11.432;2023-03-01T07:26:43;18.50;;;9.87;;
23179;SDS011;11758;45.756;11.432;2023-03-01T07:29:09;21.50;;;10.00;;
23179;SDS011;11758;45.756;11.432;2023-03-01T07:31:36;22.58;;;10.63;;
23179;SDS011;11758;45.756;11.432;2023-03-01T07:34:02;29.97;;;12.40;;
23179;SDS011;11758;45.756;11.432;2023-03-01T07:36:28;25.23;;;13.60;;
23179;SDS011;11758;45.756;11.432;2023-03-01T07:38:54;22.20;;;11.50;;
23179;SDS011;11758;45.756;11.432;2023-03-01T07:41:20;18.80;;;9.20;;
23179;SDS011;11758;45.756;11.432;2023-03-01T07:43:47;14.37;;;8.00;;
23179;SDS011;11758;45.756;11.432;2023-03-01T07:46:13;13.70;;;7.93;;
23179;SDS011;11758;45.756;11.432;2023-03-01T07:48:39;17.67;;;9.17;;
23179;SDS011;11758;45.756;11.432;2023-03-01T07:51:05;24.45;;;10.27;;
23179;SDS011;11758;45.756;11.432;2023-03-01T07:53:32;17.40;;;9.20;;
23179;SDS011;11758;45.756;11.432;2023-03-01T07:56:02;14.90;;;8.37;;
23179;SDS011;11758;45.756;11.432;2023-03-01T07:58:28;36.00;;;18.97;;
23179;SDS011;11758;45.756;11.432;2023-03-01T08:00:54;14.33;;;8.53;;
23179;SDS011;11758;45.756;11.432;2023-03-01T08:03:20;13.73;;;8.27;;
23179;SDS011;11758;45.756;11.432;2023-03-01T08:05:46;18.00;;;8.30;;
23179;SDS011;11758;45.756;11.432;2023-03-01T08:08:13;13.73;;;7.97;;
23179;SDS011;11758;45.756;11.432;2023-03-01T08:10:39;16.83;;;9.10;;
23179;SDS011;11758;45.756;11.432;2023-03-01T08:13:05;18.33;;;8.20;;
23179;SDS011;11758;45.756;11.432;2023-03-01T08:15:31;17.00;;;9.07;;
23179;SDS011;11758;45.756;11.432;2023-03-01T08:17:57;16.20;;;8.82;;
23179;SDS011;11758;45.756;11.432;2023-03-01T08:20:23;14.00;;;8.10;;
23179;SDS011;11758;45.756;11.432;2023-03-01T08:22:49;26.83;;;10.27;;
23179;SDS011;11758;45.756;11.432;2023-03-01T08:25:15;14.37;;;8.00;;
23179;SDS011;11758;45.756;11.432;2023-03-01T08:27:41;15.73;;;7.65;;
23179;SDS011;11758;45.756;11.432;2023-03-01T08:30:07;15.47;;;8.63;;
23179;SDS011;11758;45.756;11.432;2023-03-01T08:32:37;14.75;;;7.97;;
23179;SDS011;11758;45.756;11.432;2023-03-01T08:35:03;14.02;;;8.65;;
23179;SDS011;11758;45.756;11.432;2023-03-01T08:37:30;12.73;;;6.93;;
23179;SDS011;11758;45.756;11.432;2023-03-01T08:39:57;16.33;;;7.13;;
23179;SDS011;11758;45.756;11.432;2023-03-01T08:42:23;11.80;;;6.65;;
23179;SDS011;11758;45.756;11.432;2023-03-01T08:44:50;8.63;;;6.43;;
23179;SDS011;11758;45.756;11.432;2023-03-01T08:47:16;10.68;;;6.50;;
23179;SDS011;11758;45.756;11.432;2023-03-01T08:49:42;11.57;;;7.13;;
23179;SDS011;11758;45.756;11.432;2023-03-01T08:52:08;13.75;;;7.90;;
23179;SDS011;11758;45.756;11.432;2023-03-01T08:54:34;12.00;;;6.93;;
23179;SDS011;11758;45.756;11.432;2023-03-01T08:57:03;10.23;;;6.18;;
23179;SDS011;11758;45.756;11.432;2023-03-01T08:59:29;10.57;;;6.30;;
23179;SDS011;11758;45.756;11.432;2023-03-01T09:02:00;12.13;;;6.53;;
23179;SDS011;11758;45.756;11.432;2023-03-01T09:04:26;11.45;;;6.80;;
23179;SDS011;11758;45.756;11.432;2023-03-01T09:06:52;13.40;;;6.30;;
23179;SDS011;11758;45.756;11.432;2023-03-01T09:09:18;12.57;;;6.57;;
23179;SDS011;11758;45.756;11.432;2023-03-01T09:11:45;10.38;;;6.60;;
23179;SDS011;11758;45.756;11.432;2023-03-01T09:14:12;11.95;;;7.25;;
23179;SDS011;11758;45.756;11.432;2023-03-01T09:16:38;19.05;;;7.57;;
23179;SDS011;11758;45.756;11.432;2023-03-01T09:19:05;12.85;;;7.50;;
23179;SDS011;11758;45.756;11.432;2023-03-01T09:21:31;12.43;;;7.03;;
23179;SDS011;11758;45.756;11.432;2023-03-01T09:23:57;16.55;;;9.70;;
23179;SDS011;11758;45.756;11.432;2023-03-01T09:26:24;16.80;;;8.75;;
23179;SDS011;11758;45.756;11.432;2023-03-01T09:28:51;15.60;;;8.13;;
23179;SDS011;11758;45.756;11.432;2023-03-01T09:31:18;14.25;;;8.45;;
23179;SDS011;11758;45.756;11.432;2023-03-01T09:33:48;14.38;;;9.43;;
23179;SDS011;11758;45.756;11.432;2023-03-01T09:36:16;19.70;;;8.70;;
23179;SDS011;11758;45.756;11.432;2023-03-01T09:38:42;20.42;;;9.55;;
23179;SDS011;11758;45.756;11.432;2023-03-01T09:46:09;24.13;;;8.82;;
23179;SDS011;11758;45.756;11.432;2023-03-01T09:48:41;13.18;;;8.60;;
23179;SDS011;11758;45.756;11.432;2023-03-01T09:51:12;13.85;;;7.47;;
23179;SDS011;11758;45.756;11.432;2023-03-01T09:53:41;13.30;;;7.72;;
23179;SDS011;11758;45.756;11.432;2023-03-01T10:01:41;13.10;;;5.97;;
23179;SDS011;11758;45.756;11.432;2023-03-01T10:06:45;10.23;;;7.05;;
23179;SDS011;11758;45.756;11.432;2023-03-01T10:09:16;8.35;;;5.80;;
23179;SDS011;11758;45.756;11.432;2023-03-01T10:11:45;10.15;;;6.03;;
23179;SDS011;11758;45.756;11.432;2023-03-01T10:16:52;10.35;;;6.20;;
23179;SDS011;11758;45.756;11.432;2023-03-01T10:19:44;16.55;;;6.88;;
23179;SDS011;11758;45.756;11.432;2023-03-01T10:22:19;11.82;;;6.82;;
23179;SDS011;11758;45.756;11.432;2023-03-01T10:24:49;12.63;;;7.10;;
23179;SDS011;11758;45.756;11.432;2023-03-01T10:27:37;11.23;;;6.60;;
23179;SDS011;11758;45.756;11.432;2023-03-01T10:32:51;8.35;;;5.70;;
23179;SDS011;11758;45.756;11.432;2023-03-01T10:35:19;11.10;;;6.97;;
23179;SDS011;11758;45.756;11.432;2023-03-01T10:38:05;11.52;;;6.95;;
23179;SDS011;11758;45.756;11.432;2023-03-01T10:40:33;11.50;;;5.95;;
23179;SDS011;11758;45.756;11.432;2023-03-01T10:43:01;10.73;;;7.18;;
23179;SDS011;11758;45.756;11.432;2023-03-01T10:48:05;10.15;;;6.47;;
23179;SDS011;11758;45.756;11.432;2023-03-01T10:50:31;13.57;;;7.82;;
23179;SDS011;11758;45.756;11.432;2023-03-01T10:53:02;11.40;;;7.40;;
23179;SDS011;11758;45.756;11.432;2023-03-01T10:55:31;9.35;;;6.50;;
23179;SDS011;11758;45.756;11.432;2023-03-01T11:00:48;16.30;;;7.13;;
23179;SDS011;11758;45.756;11.432;2023-03-01T11:03:17;15.85;;;7.68;;
23179;SDS011;11758;45.756;11.432;2023-03-01T11:05:50;17.38;;;9.30;;
23179;SDS011;11758;45.756;11.432;2023-03-01T11:08:25;10.77;;;7.38;;
23179;SDS011;11758;45.756;11.432;2023-03-01T11:11:03;12.45;;;7.80;;
23179;SDS011;11758;45.756;11.432;2023-03-01T11:13:30;13.50;;;7.20;;
23179;SDS011;11758;45.756;11.432;2023-03-01T11:16:06;11.00;;;7.22;;
23179;SDS011;11758;45.756;11.432;2023-03-01T11:18:33;13.05;;;8.27;;
23179;SDS011;11758;45.756;11.432;2023-03-01T11:20:59;10.07;;;7.57;;
23179;SDS011;11758;45.756;11.432;2023-03-01T11:23:27;11.45;;;7.70;;
23179;SDS011;11758;45.756;11.432;2023-03-01T11:25:59;14.23;;;7.13;;
23179;SDS011;11758;45.756;11.432;2023-03-01T11:28:26;11.48;;;7.60;;
23179;SDS011;11758;45.756;11.432;2023-03-01T11:30:55;13.27;;;7.30;;
23179;SDS011;11758;45.756;11.432;2023-03-01T11:35:53;14.50;;;7.60;;
23179;SDS011;11758;45.756;11.432;2023-03-01T11:50:51;12.63;;;8.13;;
23179;SDS011;11758;45.756;11.432;2023-03-01T11:53:28;12.65;;;8.65;;
23179;SDS011;11758;45.756;11.432;2023-03-01T12:06:34;12.75;;;7.75;;
23179;SDS011;11758;45.756;11.432;2023-03-01T12:11:42;12.45;;;6.55;;
23179;SDS011;11758;45.756;11.432;2023-03-01T12:14:29;14.02;;;9.13;;
23179;SDS011;11758;45.756;11.432;2023-03-01T12:17:07;11.68;;;7.90;;
23179;SDS011;11758;45.756;11.432;2023-03-01T12:27:37;11.05;;;6.40;;
23179;SDS011;11758;45.756;11.432;2023-03-01T12:35:27;10.63;;;7.40;;
23179;SDS011;11758;45.756;11.432;2023-03-01T12:41:04;12.27;;;6.70;;
23179;SDS011;11758;45.756;11.432;2023-03-01T12:44:03;17.45;;;7.32;;
23179;SDS011;11758;45.756;11.432;2023-03-01T12:51:18;12.73;;;7.63;;
23179;SDS011;11758;45.756;11.432;2023-03-01T12:53:50;11.80;;;7.10;;
23179;SDS011;11758;45.756;11.432;2023-03-01T12:56:18;12.60;;;6.82;;
23179;SDS011;11758;45.756;11.432;2023-03-01T12:58:57;23.00;;;5.93;;
23179;SDS011;11758;45.756;11.432;2023-03-01T13:06:44;10.07;;;5.50;;
23179;SDS011;11758;45.756;11.432;2023-03-01T13:09:17;9.23;;;4.70;;
23179;SDS011;11758;45.756;11.432;2023-03-01T13:11:45;12.32;;;5.70;;
23179;SDS011;11758;45.756;11.432;2023-03-01T13:16:47;18.08;;;5.25;;
23179;SDS011;11758;45.756;11.432;2023-03-01T13:19:21;15.65;;;4.90;;
23179;SDS011;11758;45.756;11.432;2023-03-01T13:21:48;16.42;;;5.00;;
23179;SDS011;11758;45.756;11.432;2023-03-01T13:24:25;10.48;;;5.40;;
23179;SDS011;11758;45.756;11.432;2023-03-01T13:32:30;19.50;;;5.75;;
23179;SDS011;11758;45.756;11.432;2023-03-01T13:35:08;10.38;;;6.50;;
23179;SDS011;11758;45.756;11.432;2023-03-01T13:37:49;16.35;;;5.97;;
23179;SDS011;11758;45.756;11.432;2023-03-01T13:42:46;18.67;;;8.45;;
23179;SDS011;11758;45.756;11.432;2023-03-01T13:45:23;13.57;;;7.85;;
23179;SDS011;11758;45.756;11.432;2023-03-01T13:47:55;20.73;;;6.15;;
23179;SDS011;11758;45.756;11.432;2023-03-01T13:50:27;13.20;;;5.03;;
23179;SDS011;11758;45.756;11.432;2023-03-01T13:52:58;15.75;;;5.55;;
23179;SDS011;11758;45.756;11.432;2023-03-01T13:55:40;8.90;;;5.60;;
23179;SDS011;11758;45.756;11.432;2023-03-01T13:58:21;16.75;;;5.70;;
23179;SDS011;11758;45.756;11.432;2023-03-01T14:00:54;10.57;;;4.85;;
23179;SDS011;11758;45.756;11.432;2023-03-01T14:03:20;13.05;;;5.35;;
23179;SDS011;11758;45.756;11.432;2023-03-01T14:06:00;21.13;;;4.78;;
23179;SDS011;11758;45.756;11.432;2023-03-01T14:08:28;20.95;;;6.90;;
23179;SDS011;11758;45.756;11.432;2023-03-01T14:16:11;18.52;;;5.95;;
23179;SDS011;11758;45.756;11.432;2023-03-01T14:18:39;18.80;;;5.95;;
23179;SDS011;11758;45.756;11.432;2023-03-01T14:21:07;18.48;;;7.88;;
23179;SDS011;11758;45.756;11.432;2023-03-01T14:23:34;23.02;;;7.50;;
23179;SDS011;11758;45.756;11.432;2023-03-01T14:26:04;15.93;;;6.05;;
23179;SDS011;11758;45.756;11.432;2023-03-01T14:28:31;11.20;;;5.03;;
23179;SDS011;11758;45.756;11.432;2023-03-01T14:31:02;19.38;;;6.45;;
23179;SDS011;11758;45.756;11.432;2023-03-01T14:33:29;16.75;;;6.30;;
23179;SDS011;11758;45.756;11.432;2023-03-01T14:35:59;15.88;;;6.50;;
23179;SDS011;11758;45.756;11.432;2023-03-01T14:41:22;10.55;;;5.18;;
23179;SDS011;11758;45.756;11.432;2023-03-01T14:43:49;18.02;;;6.00;;
23179;SDS011;11758;45.756;11.432;2023-03-01T14:46:20;13.80;;;5.75;;
23179;SDS011;11758;45.756;11.432;2023-03-01T14:48:54;16.08;;;5.82;;
23179;SDS011;11758;45.756;11.432;2023-03-01T14:51:21;17.00;;;5.68;;
23179;SDS011;11758;45.756;11.432;2023-03-01T14:53:47;16.92;;;5.95;;
23179;SDS011;11758;45.756;11.432;2023-03-01T14:56:14;47.72;;;7.75;;
23179;SDS011;11758;45.756;11.432;2023-03-01T14:58:42;18.48;;;6.50;;
23179;SDS011;11758;45.756;11.432;2023-03-01T15:01:13;22.00;;;6.53;;
23179;SDS011;11758;45.756;11.432;2023-03-01T15:03:41;17.60;;;6.43;;
23179;SDS011;11758;45.756;11.432;2023-03-01T15:06:11;19.13;;;6.35;;
23179;SDS011;11758;45.756;11.432;2023-03-01T15:08:50;15.90;;;6.18;;
23179;SDS011;11758;45.756;11.432;2023-03-01T15:11:23;18.27;;;6.90;;
23179;SDS011;11758;45.756;11.432;2023-03-01T15:13:50;22.27;;;8.20;;
23179;SDS011;11758;45.756;11.432;2023-03-01T15:16:17;27.83;;;11.93;;
23179;SDS011;11758;45.756;11.432;2023-03-01T15:18:45;21.17;;;9.75;;
23179;SDS011;11758;45.756;11.432;2023-03-01T15:23:41;19.05;;;8.45;;
23179;SDS011;11758;45.756;11.432;2023-03-01T15:26:18;23.00;;;9.63;;
23179;SDS011;11758;45.756;11.432;2023-03-01T15:28:49;21.88;;;9.10;;
23179;SDS011;11758;45.756;11.432;2023-03-01T15:31:22;21.92;;;8.27;;
23179;SDS011;11758;45.756;11.432;2023-03-01T15:33:49;24.25;;;9.25;;
23179;SDS011;11758;45.756;11.432;2023-03-01T15:36:32;29.73;;;13.75;;
23179;SDS011;11758;45.756;11.432;2023-03-01T15:38:59;18.92;;;9.90;;
23179;SDS011;11758;45.756;11.432;2023-03-01T15:41:30;27.63;;;9.98;;
23179;SDS011;11758;45.756;11.432;2023-03-01T15:43:56;25.85;;;10.32;;
23179;SDS011;11758;45.756;11.432;2023-03-01T15:46:27;33.08;;;12.00;;
23179;SDS011;11758;45.756;11.432;2023-03-01T15:48:58;31.48;;;13.55;;
23179;SDS011;11758;45.756;11.432;2023-03-01T15:51:29;21.75;;;10.40;;
23179;SDS011;11758;45.756;11.432;2023-03-01T15:53:57;29.00;;;12.68;;
23179;SDS011;11758;45.756;11.432;2023-03-01T15:56:24;36.17;;;14.52;;
23179;SDS011;11758;45.756;11.432;2023-03-01T15:58:50;34.25;;;13.95;;
23179;SDS011;11758;45.756;11.432;2023-03-01T16:01:16;26.45;;;12.82;;
23179;SDS011;11758;45.756;11.432;2023-03-01T16:03:43;25.08;;;12.80;;
23179;SDS011;11758;45.756;11.432;2023-03-01T16:06:09;35.00;;;15.40;;
23179;SDS011;11758;45.756;11.432;2023-03-01T16:08:36;54.40;;;21.60;;
23179;SDS011;11758;45.756;11.432;2023-03-01T16:11:03;139.07;;;46.03;;
23179;SDS011;11758;45.756;11.432;2023-03-01T16:13:32;32.13;;;14.48;;